sensor_id;sensor_type;location;lat;lon;timestamp;P1;durP1;ratioP1;P2;durP2;ratioP2
15633;SDS011;14654;48.898;8.308;2022-09-27T00:01:40;3.97;;;2.70;;
15633;SDS011;14654;48.898;8.308;2022-09-27T00:04:07;3.60;;;3.07;;
15633;SDS011;14654;48.898;8.308;2022-09-27T00:06:32;3.20;;;2.90;;
15633;SDS011;14654;48.898;8.308;2022-09-27T00:08:58;4.77;;;3.43;;
15633;SDS011;14654;48.898;8.308;2022-09-27T00:11:31;3.73;;;3.27;;
15633;SDS011;14654;48.898;8.308;2022-09-27T00:13:59;3.27;;;2.97;;
15633;SDS011;14654;48.898;8.308;2022-09-27T00:16:26;2.90;;;2.10;;
15633;SDS011;14654;48.898;8.308;2022-09-27T00:18:57;4.10;;;3.00;;
15633;SDS011;14654;48.898;8.308;2022-09-27T00:21:26;3.70;;;2.97;;
15633;SDS011;14654;48.898;8.308;2022-09-27T00:23:54;3.93;;;2.73;;
15633;SDS011;14654;48.898;8.308;2022-09-27T00:26:19;3.80;;;2.77;;
15633;SDS011;14654;48.898;8.308;2022-09-27T00:28:44;4.33;;;2.90;;
15633;SDS011;14654;48.898;8.308;2022-09-27T00:31:32;4.67;;;3.07;;
15633;SDS011;14654;48.898;8.308;2022-09-27T00:33:57;3.93;;;2.90;;
15633;SDS011;14654;48.898;8.308;2022-09-27T00:36:25;6.17;;;3.73;;
15633;SDS011;14654;48.898;8.308;2022-09-27T00:38:52;4.93;;;3.03;;
15633;SDS011;14654;48.898;8.308;2022-09-27T00:41:19;7.07;;;4.17;;
15633;SDS011;14654;48.898;8.308;2022-09-27T00:43:52;4.30;;;3.33;;
15633;SDS011;14654;48.898;8.308;2022-09-27T00:46:21;3.37;;;3.07;;
15633;SDS011;14654;48.898;8.308;2022-09-27T00:49:08;3.33;;;2.50;;
15633;SDS011;14654;48.898;8.308;2022-09-27T00:51:42;7.77;;;4.43;;
15633;SDS011;14654;48.898;8.308;2022-09-27T00:54:12;8.23;;;4.83;;
15633;SDS011;14654;48.898;8.308;2022-09-27T00:56:41;6.33;;;4.43;;
15633;SDS011;14654;48.898;8.308;2022-09-27T00:59:12;10.93;;;7.20;;
15633;SDS011;14654;48.898;8.308;2022-09-27T01:01:41;4.67;;;3.73;;
15633;SDS011;14654;48.898;8.308;2022-09-27T01:04:08;4.17;;;3.30;;
15633;SDS011;14654;48.898;8.308;2022-09-27T01:06:35;5.07;;;3.40;;
15633;SDS011;14654;48.898;8.308;2022-09-27T01:09:02;3.33;;;2.40;;
15633;SDS011;14654;48.898;8.308;2022-09-27T01:26:12;1.10;;;1.00;;
15633;SDS011;14654;48.898;8.308;2022-09-27T01:28:54;1.10;;;1.00;;
15633;SDS011;14654;48.898;8.308;2022-09-27T01:36:48;1.87;;;1.20;;
15633;SDS011;14654;48.898;8.308;2022-09-27T01:42:24;3.37;;;1.17;;
15633;SDS011;14654;48.898;8.308;2022-09-27T01:48:08;2.60;;;1.20;;
15633;SDS011;14654;48.898;8.308;2022-09-27T01:50:51;1.67;;;1.40;;
15633;SDS011;14654;48.898;8.308;2022-09-27T01:53:24;2.83;;;1.50;;
15633;SDS011;14654;48.898;8.308;2022-09-27T01:55:55;1.87;;;1.27;;
15633;SDS011;14654;48.898;8.308;2022-09-27T01:58:23;2.07;;;1.50;;
15633;SDS011;14654;48.898;8.308;2022-09-27T02:00:52;3.20;;;1.70;;
15633;SDS011;14654;48.898;8.308;2022-09-27T02:03:20;2.77;;;1.37;;
15633;SDS011;14654;48.898;8.308;2022-09-27T02:05:54;2.20;;;1.50;;
15633;SDS011;14654;48.898;8.308;2022-09-27T02:11:13;3.00;;;1.80;;
15633;SDS011;14654;48.898;8.308;2022-09-27T02:16:21;2.37;;;1.70;;
15633;SDS011;14654;48.898;8.308;2022-09-27T02:19:05;3.87;;;1.70;;
15633;SDS011;14654;48.898;8.308;2022-09-27T02:21:41;2.77;;;1.70;;
15633;SDS011;14654;48.898;8.308;2022-09-27T02:24:18;3.10;;;1.63;;
15633;SDS011;14654;48.898;8.308;2022-09-27T02:26:49;1.50;;;1.07;;
15633;SDS011;14654;48.898;8.308;2022-09-27T02:29:33;3.63;;;1.80;;
15633;SDS011;14654;48.898;8.308;2022-09-27T02:32:03;4.00;;;1.60;;
15633;SDS011;14654;48.898;8.308;2022-09-27T02:34:29;2.63;;;1.73;;
15633;SDS011;14654;48.898;8.308;2022-09-27T02:36:57;3.00;;;1.80;;
15633;SDS011;14654;48.898;8.308;2022-09-27T02:39:23;3.17;;;2.00;;
15633;SDS011;14654;48.898;8.308;2022-09-27T02:41:49;4.90;;;1.90;;
15633;SDS011;14654;48.898;8.308;2022-09-27T02:44:16;1.77;;;1.60;;
15633;SDS011;14654;48.898;8.308;2022-09-27T02:57:25;5.40;;;3.80;;
15633;SDS011;14654;48.898;8.308;2022-09-27T03:05:12;4.70;;;2.80;;
15633;SDS011;14654;48.898;8.308;2022-09-27T03:07:42;6.03;;;2.80;;
15633;SDS011;14654;48.898;8.308;2022-09-27T03:10:14;5.17;;;3.23;;
15633;SDS011;14654;48.898;8.308;2022-09-27T03:12:41;5.20;;;3.17;;
15633;SDS011;14654;48.898;8.308;2022-09-27T03:15:07;6.10;;;2.80;;
15633;SDS011;14654;48.898;8.308;2022-09-27T03:17:32;6.73;;;4.03;;
15633;SDS011;14654;48.898;8.308;2022-09-27T03:19:58;6.77;;;3.80;;
15633;SDS011;14654;48.898;8.308;2022-09-27T03:22:23;5.80;;;4.07;;
15633;SDS011;14654;48.898;8.308;2022-09-27T03:24:48;9.07;;;4.87;;
15633;SDS011;14654;48.898;8.308;2022-09-27T03:27:14;5.90;;;3.53;;
15633;SDS011;14654;48.898;8.308;2022-09-27T03:29:39;5.47;;;3.60;;
15633;SDS011;14654;48.898;8.308;2022-09-27T03:32:04;6.50;;;3.17;;
15633;SDS011;14654;48.898;8.308;2022-09-27T03:34:30;5.73;;;3.70;;
15633;SDS011;14654;48.898;8.308;2022-09-27T03:36:55;5.40;;;3.30;;
15633;SDS011;14654;48.898;8.308;2022-09-27T03:39:20;5.17;;;3.43;;
15633;SDS011;14654;48.898;8.308;2022-09-27T03:41:46;8.23;;;3.90;;
15633;SDS011;14654;48.898;8.308;2022-09-27T03:44:11;6.23;;;3.70;;
15633;SDS011;14654;48.898;8.308;2022-09-27T03:46:37;7.23;;;3.20;;
15633;SDS011;14654;48.898;8.308;2022-09-27T03:49:02;5.67;;;3.77;;
15633;SDS011;14654;48.898;8.308;2022-09-27T03:51:28;7.37;;;4.37;;
15633;SDS011;14654;48.898;8.308;2022-09-27T03:53:53;6.03;;;3.43;;
15633;SDS011;14654;48.898;8.308;2022-09-27T03:56:18;6.50;;;3.40;;
15633;SDS011;14654;48.898;8.308;2022-09-27T03:58:44;6.80;;;3.90;;
15633;SDS011;14654;48.898;8.308;2022-09-27T04:01:09;4.10;;;3.37;;
15633;SDS011;14654;48.898;8.308;2022-09-27T04:03:35;4.33;;;3.10;;
15633;SDS011;14654;48.898;8.308;2022-09-27T04:06:01;4.13;;;2.90;;
15633;SDS011;14654;48.898;8.308;2022-09-27T04:08:26;3.53;;;2.50;;
15633;SDS011;14654;48.898;8.308;2022-09-27T04:10:54;5.93;;;2.47;;
15633;SDS011;14654;48.898;8.308;2022-09-27T04:13:20;4.53;;;2.83;;
15633;SDS011;14654;48.898;8.308;2022-09-27T04:15:45;5.73;;;3.03;;
15633;SDS011;14654;48.898;8.308;2022-09-27T04:18:10;4.00;;;2.30;;
15633;SDS011;14654;48.898;8.308;2022-09-27T04:20:36;3.83;;;2.50;;
15633;SDS011;14654;48.898;8.308;2022-09-27T04:23:01;5.73;;;2.90;;
15633;SDS011;14654;48.898;8.308;2022-09-27T04:25:27;5.17;;;2.33;;
15633;SDS011;14654;48.898;8.308;2022-09-27T04:27:53;5.20;;;2.13;;
15633;SDS011;14654;48.898;8.308;2022-09-27T04:30:19;4.30;;;2.47;;
15633;SDS011;14654;48.898;8.308;2022-09-27T04:32:46;4.73;;;2.60;;
15633;SDS011;14654;48.898;8.308;2022-09-27T04:35:11;5.63;;;2.60;;
15633;SDS011;14654;48.898;8.308;2022-09-27T04:37:56;4.17;;;2.30;;
15633;SDS011;14654;48.898;8.308;2022-09-27T04:40:22;4.17;;;1.80;;
15633;SDS011;14654;48.898;8.308;2022-09-27T04:42:49;3.20;;;1.90;;
15633;SDS011;14654;48.898;8.308;2022-09-27T04:45:15;3.30;;;2.00;;
15633;SDS011;14654;48.898;8.308;2022-09-27T04:47:42;4.13;;;2.10;;
15633;SDS011;14654;48.898;8.308;2022-09-27T04:50:12;3.53;;;2.00;;
15633;SDS011;14654;48.898;8.308;2022-09-27T04:52:38;4.27;;;2.07;;
15633;SDS011;14654;48.898;8.308;2022-09-27T04:55:04;3.77;;;1.80;;
15633;SDS011;14654;48.898;8.308;2022-09-27T04:57:30;3.47;;;2.00;;
15633;SDS011;14654;48.898;8.308;2022-09-27T04:59:56;3.27;;;2.20;;
15633;SDS011;14654;48.898;8.308;2022-09-27T05:02:23;3.67;;;2.20;;
15633;SDS011;14654;48.898;8.308;2022-09-27T05:04:48;3.23;;;2.17;;
15633;SDS011;14654;48.898;8.308;2022-09-27T05:07:13;2.77;;;1.90;;
15633;SDS011;14654;48.898;8.308;2022-09-27T05:09:39;3.33;;;2.03;;
15633;SDS011;14654;48.898;8.308;2022-09-27T05:12:04;4.27;;;1.93;;
15633;SDS011;14654;48.898;8.308;2022-09-27T05:14:31;2.87;;;1.70;;
15633;SDS011;14654;48.898;8.308;2022-09-27T05:16:57;4.07;;;2.23;;
15633;SDS011;14654;48.898;8.308;2022-09-27T05:19:22;3.83;;;1.67;;
15633;SDS011;14654;48.898;8.308;2022-09-27T05:21:48;3.87;;;1.53;;
15633;SDS011;14654;48.898;8.308;2022-09-27T05:24:14;3.17;;;1.83;;
15633;SDS011;14654;48.898;8.308;2022-09-27T05:26:40;4.53;;;1.87;;
15633;SDS011;14654;48.898;8.308;2022-09-27T05:29:05;2.70;;;1.90;;
15633;SDS011;14654;48.898;8.308;2022-09-27T05:31:31;2.17;;;1.57;;
15633;SDS011;14654;48.898;8.308;2022-09-27T05:33:56;2.53;;;1.50;;
15633;SDS011;14654;48.898;8.308;2022-09-27T05:36:22;3.30;;;1.60;;
15633;SDS011;14654;48.898;8.308;2022-09-27T05:38:47;3.43;;;1.97;;
15633;SDS011;14654;48.898;8.308;2022-09-27T05:41:13;2.77;;;1.67;;
15633;SDS011;14654;48.898;8.308;2022-09-27T05:43:39;2.97;;;1.50;;
15633;SDS011;14654;48.898;8.308;2022-09-27T05:46:04;2.63;;;1.70;;
15633;SDS011;14654;48.898;8.308;2022-09-27T05:48:30;1.93;;;1.30;;
15633;SDS011;14654;48.898;8.308;2022-09-27T05:50:56;2.00;;;1.70;;
15633;SDS011;14654;48.898;8.308;2022-09-27T05:53:21;4.33;;;1.77;;
15633;SDS011;14654;48.898;8.308;2022-09-27T05:55:46;1.70;;;1.20;;
15633;SDS011;14654;48.898;8.308;2022-09-27T05:58:13;2.03;;;1.20;;
15633;SDS011;14654;48.898;8.308;2022-09-27T06:00:40;2.03;;;1.40;;
15633;SDS011;14654;48.898;8.308;2022-09-27T06:03:07;2.23;;;1.40;;
15633;SDS011;14654;48.898;8.308;2022-09-27T06:05:36;2.63;;;1.60;;
15633;SDS011;14654;48.898;8.308;2022-09-27T06:08:06;3.07;;;1.83;;
15633;SDS011;14654;48.898;8.308;2022-09-27T06:10:34;2.40;;;1.70;;
15633;SDS011;14654;48.898;8.308;2022-09-27T06:13:01;1.47;;;1.37;;
15633;SDS011;14654;48.898;8.308;2022-09-27T06:15:30;1.87;;;1.37;;
15633;SDS011;14654;48.898;8.308;2022-09-27T06:18:01;3.33;;;1.30;;
15633;SDS011;14654;48.898;8.308;2022-09-27T06:20:29;4.30;;;1.50;;
15633;SDS011;14654;48.898;8.308;2022-09-27T06:22:55;2.83;;;1.50;;
15633;SDS011;14654;48.898;8.308;2022-09-27T06:25:31;2.93;;;1.33;;
15633;SDS011;14654;48.898;8.308;2022-09-27T06:27:57;1.80;;;1.30;;
15633;SDS011;14654;48.898;8.308;2022-09-27T06:30:22;1.30;;;1.20;;
15633;SDS011;14654;48.898;8.308;2022-09-27T06:32:47;2.83;;;1.40;;
15633;SDS011;14654;48.898;8.308;2022-09-27T06:35:19;2.30;;;1.43;;
15633;SDS011;14654;48.898;8.308;2022-09-27T06:37:44;2.53;;;1.57;;
15633;SDS011;14654;48.898;8.308;2022-09-27T06:40:10;2.30;;;1.37;;
15633;SDS011;14654;48.898;8.308;2022-09-27T06:42:35;1.20;;;1.10;;
15633;SDS011;14654;48.898;8.308;2022-09-27T06:45:01;2.70;;;1.40;;
15633;SDS011;14654;48.898;8.308;2022-09-27T06:47:26;1.50;;;1.27;;
15633;SDS011;14654;48.898;8.308;2022-09-27T06:49:53;1.97;;;1.20;;
15633;SDS011;14654;48.898;8.308;2022-09-27T06:52:19;2.17;;;1.30;;
15633;SDS011;14654;48.898;8.308;2022-09-27T06:54:44;1.77;;;1.30;;
15633;SDS011;14654;48.898;8.308;2022-09-27T06:57:09;1.97;;;1.30;;
15633;SDS011;14654;48.898;8.308;2022-09-27T06:59:55;1.77;;;1.30;;
15633;SDS011;14654;48.898;8.308;2022-09-27T07:02:39;2.40;;;1.07;;
15633;SDS011;14654;48.898;8.308;2022-09-27T07:05:04;1.10;;;1.00;;
15633;SDS011;14654;48.898;8.308;2022-09-27T07:07:34;1.87;;;1.40;;
15633;SDS011;14654;48.898;8.308;2022-09-27T07:09:59;1.47;;;0.87;;
15633;SDS011;14654;48.898;8.308;2022-09-27T07:12:24;1.70;;;0.80;;
15633;SDS011;14654;48.898;8.308;2022-09-27T07:14:50;2.00;;;1.00;;
15633;SDS011;14654;48.898;8.308;2022-09-27T07:17:15;6.20;;;5.60;;
15633;SDS011;14654;48.898;8.308;2022-09-27T07:19:40;2.40;;;1.87;;
15633;SDS011;14654;48.898;8.308;2022-09-27T07:22:06;1.83;;;1.30;;
15633;SDS011;14654;48.898;8.308;2022-09-27T07:24:31;1.93;;;1.00;;
15633;SDS011;14654;48.898;8.308;2022-09-27T07:26:56;1.67;;;1.10;;
15633;SDS011;14654;48.898;8.308;2022-09-27T07:29:22;1.97;;;0.93;;
15633;SDS011;14654;48.898;8.308;2022-09-27T07:31:47;1.30;;;1.20;;
15633;SDS011;14654;48.898;8.308;2022-09-27T07:34:12;2.20;;;1.20;;
15633;SDS011;14654;48.898;8.308;2022-09-27T07:36:38;1.20;;;1.00;;
15633;SDS011;14654;48.898;8.308;2022-09-27T07:39:03;1.43;;;1.20;;
15633;SDS011;14654;48.898;8.308;2022-09-27T07:41:28;3.03;;;1.40;;
15633;SDS011;14654;48.898;8.308;2022-09-27T07:43:54;1.97;;;1.40;;
15633;SDS011;14654;48.898;8.308;2022-09-27T07:46:19;2.43;;;1.30;;
15633;SDS011;14654;48.898;8.308;2022-09-27T07:48:45;2.47;;;1.30;;
15633;SDS011;14654;48.898;8.308;2022-09-27T07:51:10;2.97;;;1.50;;
15633;SDS011;14654;48.898;8.308;2022-09-27T07:53:36;1.83;;;1.40;;
15633;SDS011;14654;48.898;8.308;2022-09-27T07:56:01;2.33;;;1.27;;
15633;SDS011;14654;48.898;8.308;2022-09-27T07:58:27;2.13;;;1.50;;
15633;SDS011;14654;48.898;8.308;2022-09-27T08:00:54;2.43;;;1.30;;
15633;SDS011;14654;48.898;8.308;2022-09-27T08:03:20;2.43;;;1.30;;
15633;SDS011;14654;48.898;8.308;2022-09-27T08:05:46;2.20;;;1.47;;
15633;SDS011;14654;48.898;8.308;2022-09-27T08:08:12;1.30;;;1.20;;
15633;SDS011;14654;48.898;8.308;2022-09-27T08:10:38;1.47;;;1.30;;
15633;SDS011;14654;48.898;8.308;2022-09-27T08:13:08;1.77;;;1.30;;
15633;SDS011;14654;48.898;8.308;2022-09-27T08:15:33;2.37;;;1.23;;
15633;SDS011;14654;48.898;8.308;2022-09-27T08:18:00;2.17;;;1.60;;
15633;SDS011;14654;48.898;8.308;2022-09-27T08:20:26;2.13;;;1.40;;
15633;SDS011;14654;48.898;8.308;2022-09-27T08:22:51;1.73;;;1.30;;
15633;SDS011;14654;48.898;8.308;2022-09-27T08:25:17;2.17;;;1.47;;
15633;SDS011;14654;48.898;8.308;2022-09-27T08:27:42;2.10;;;1.30;;
15633;SDS011;14654;48.898;8.308;2022-09-27T08:30:08;1.90;;;1.33;;
15633;SDS011;14654;48.898;8.308;2022-09-27T08:32:34;2.77;;;1.47;;
15633;SDS011;14654;48.898;8.308;2022-09-27T08:34:59;1.37;;;1.27;;
15633;SDS011;14654;48.898;8.308;2022-09-27T08:37:24;3.50;;;1.73;;
15633;SDS011;14654;48.898;8.308;2022-09-27T08:39:50;3.13;;;1.80;;
15633;SDS011;14654;48.898;8.308;2022-09-27T08:50:27;2.53;;;1.90;;
15633;SDS011;14654;48.898;8.308;2022-09-27T08:53:06;2.70;;;1.67;;
15633;SDS011;14654;48.898;8.308;2022-09-27T08:55:40;2.77;;;2.00;;
15633;SDS011;14654;48.898;8.308;2022-09-27T08:58:15;3.13;;;1.87;;
15633;SDS011;14654;48.898;8.308;2022-09-27T09:00:43;2.90;;;1.80;;
15633;SDS011;14654;48.898;8.308;2022-09-27T09:03:15;2.10;;;1.50;;
15633;SDS011;14654;48.898;8.308;2022-09-27T09:05:43;2.50;;;1.47;;
15633;SDS011;14654;48.898;8.308;2022-09-27T09:08:41;2.73;;;1.60;;
15633;SDS011;14654;48.898;8.308;2022-09-27T09:25:58;1.80;;;1.20;;
15633;SDS011;14654;48.898;8.308;2022-09-27T09:29:03;2.33;;;1.40;;
15633;SDS011;14654;48.898;8.308;2022-09-27T09:31:42;1.40;;;1.10;;
15633;SDS011;14654;48.898;8.308;2022-09-27T09:34:18;3.40;;;1.33;;
15633;SDS011;14654;48.898;8.308;2022-09-27T09:36:58;2.00;;;1.23;;
15633;SDS011;14654;48.898;8.308;2022-09-27T09:39:38;1.60;;;1.20;;
15633;SDS011;14654;48.898;8.308;2022-09-27T09:42:13;2.50;;;1.33;;
15633;SDS011;14654;48.898;8.308;2022-09-27T09:44:48;1.43;;;1.03;;
15633;SDS011;14654;48.898;8.308;2022-09-27T09:47:41;1.80;;;1.00;;
15633;SDS011;14654;48.898;8.308;2022-09-27T09:52:55;1.80;;;1.37;;
15633;SDS011;14654;48.898;8.308;2022-09-27T09:55:24;1.40;;;1.23;;
15633;SDS011;14654;48.898;8.308;2022-09-27T10:00:52;1.80;;;1.10;;
15633;SDS011;14654;48.898;8.308;2022-09-27T10:03:20;2.73;;;1.33;;
15633;SDS011;14654;48.898;8.308;2022-09-27T10:05:48;1.97;;;1.40;;
15633;SDS011;14654;48.898;8.308;2022-09-27T10:08:16;1.90;;;1.50;;
15633;SDS011;14654;48.898;8.308;2022-09-27T10:10:44;2.17;;;1.57;;
15633;SDS011;14654;48.898;8.308;2022-09-27T10:13:12;2.43;;;1.50;;
15633;SDS011;14654;48.898;8.308;2022-09-27T10:15:40;3.30;;;1.70;;
15633;SDS011;14654;48.898;8.308;2022-09-27T10:18:08;2.10;;;1.30;;
15633;SDS011;14654;48.898;8.308;2022-09-27T10:20:44;1.50;;;1.37;;
15633;SDS011;14654;48.898;8.308;2022-09-27T10:23:16;1.87;;;1.50;;
15633;SDS011;14654;48.898;8.308;2022-09-27T10:25:45;2.20;;;1.37;;
15633;SDS011;14654;48.898;8.308;2022-09-27T10:28:41;1.73;;;1.10;;
15633;SDS011;14654;48.898;8.308;2022-09-27T10:31:10;2.07;;;1.47;;
15633;SDS011;14654;48.898;8.308;2022-09-27T10:36:22;2.20;;;1.73;;
15633;SDS011;14654;48.898;8.308;2022-09-27T10:38:54;3.10;;;1.80;;
15633;SDS011;14654;48.898;8.308;2022-09-27T10:41:23;1.50;;;0.90;;
15633;SDS011;14654;48.898;8.308;2022-09-27T10:43:51;2.03;;;0.80;;
15633;SDS011;14654;48.898;8.308;2022-09-27T10:51:50;0.50;;;0.40;;
15633;SDS011;14654;48.898;8.308;2022-09-27T10:54:19;0.77;;;0.33;;
15633;SDS011;14654;48.898;8.308;2022-09-27T10:56:57;0.30;;;0.30;;
15633;SDS011;14654;48.898;8.308;2022-09-27T10:59:32;0.50;;;0.30;;
15633;SDS011;14654;48.898;8.308;2022-09-27T11:02:00;0.53;;;0.53;;
15633;SDS011;14654;48.898;8.308;2022-09-27T11:04:30;1.37;;;1.27;;
15633;SDS011;14654;48.898;8.308;2022-09-27T11:07:16;2.37;;;1.37;;
15633;SDS011;14654;48.898;8.308;2022-09-27T11:09:47;1.10;;;1.00;;
15633;SDS011;14654;48.898;8.308;2022-09-27T11:12:18;1.63;;;1.53;;
15633;SDS011;14654;48.898;8.308;2022-09-27T11:15:05;4.23;;;3.83;;
15633;SDS011;14654;48.898;8.308;2022-09-27T11:17:42;3.13;;;2.90;;
15633;SDS011;14654;48.898;8.308;2022-09-27T11:31:18;1.50;;;1.27;;
15633;SDS011;14654;48.898;8.308;2022-09-27T11:48:10;0.90;;;0.80;;
15633;SDS011;14654;48.898;8.308;2022-09-27T11:51:00;2.90;;;2.60;;
15633;SDS011;14654;48.898;8.308;2022-09-27T11:53:38;1.97;;;1.83;;
15633;SDS011;14654;48.898;8.308;2022-09-27T11:59:00;1.30;;;1.20;;
15633;SDS011;14654;48.898;8.308;2022-09-27T12:09:59;2.57;;;1.00;;
15633;SDS011;14654;48.898;8.308;2022-09-27T12:12:28;1.87;;;0.90;;
15633;SDS011;14654;48.898;8.308;2022-09-27T12:14:57;1.80;;;1.40;;
15633;SDS011;14654;48.898;8.308;2022-09-27T12:17:30;1.70;;;1.20;;
15633;SDS011;14654;48.898;8.308;2022-09-27T12:20:02;3.73;;;1.33;;
15633;SDS011;14654;48.898;8.308;2022-09-27T12:22:33;2.23;;;1.23;;
15633;SDS011;14654;48.898;8.308;2022-09-27T12:25:04;0.80;;;0.70;;
15633;SDS011;14654;48.898;8.308;2022-09-27T12:27:44;1.53;;;1.30;;
15633;SDS011;14654;48.898;8.308;2022-09-27T12:30:13;2.37;;;1.53;;
15633;SDS011;14654;48.898;8.308;2022-09-27T12:32:46;3.30;;;1.77;;
15633;SDS011;14654;48.898;8.308;2022-09-27T12:35:39;3.50;;;1.20;;
15633;SDS011;14654;48.898;8.308;2022-09-27T12:38:14;2.00;;;1.10;;
15633;SDS011;14654;48.898;8.308;2022-09-27T12:40:45;2.33;;;1.20;;
15633;SDS011;14654;48.898;8.308;2022-09-27T12:43:21;2.87;;;0.90;;
15633;SDS011;14654;48.898;8.308;2022-09-27T12:51:09;1.20;;;0.90;;
15633;SDS011;14654;48.898;8.308;2022-09-27T12:56:21;1.83;;;1.10;;
15633;SDS011;14654;48.898;8.308;2022-09-27T13:12:07;0.83;;;0.83;;
15633;SDS011;14654;48.898;8.308;2022-09-27T13:25:57;0.80;;;0.47;;
15633;SDS011;14654;48.898;8.308;2022-09-27T13:36:20;0.70;;;0.60;;
15633;SDS011;14654;48.898;8.308;2022-09-27T13:49:41;0.83;;;0.70;;
15633;SDS011;14654;48.898;8.308;2022-09-27T13:52:16;1.00;;;0.80;;
15633;SDS011;14654;48.898;8.308;2022-09-27T13:54:50;1.10;;;0.70;;
15633;SDS011;14654;48.898;8.308;2022-09-27T13:59:59;1.57;;;0.80;;
15633;SDS011;14654;48.898;8.308;2022-09-27T14:02:30;1.00;;;0.83;;
15633;SDS011;14654;48.898;8.308;2022-09-27T14:05:03;0.97;;;0.70;;
15633;SDS011;14654;48.898;8.308;2022-09-27T14:07:37;0.80;;;0.77;;
15633;SDS011;14654;48.898;8.308;2022-09-27T14:10:06;0.80;;;0.77;;
15633;SDS011;14654;48.898;8.308;2022-09-27T14:12:38;0.60;;;0.60;;
15633;SDS011;14654;48.898;8.308;2022-09-27T14:15:06;0.60;;;0.50;;
15633;SDS011;14654;48.898;8.308;2022-09-27T14:17:40;1.57;;;0.87;;
15633;SDS011;14654;48.898;8.308;2022-09-27T14:20:28;1.30;;;0.60;;
15633;SDS011;14654;48.898;8.308;2022-09-27T14:22:57;0.77;;;0.67;;
15633;SDS011;14654;48.898;8.308;2022-09-27T14:25:22;0.80;;;0.70;;
15633;SDS011;14654;48.898;8.308;2022-09-27T14:27:49;1.00;;;0.57;;
15633;SDS011;14654;48.898;8.308;2022-09-27T14:32:48;0.70;;;0.70;;
15633;SDS011;14654;48.898;8.308;2022-09-27T14:35:16;0.50;;;0.50;;
15633;SDS011;14654;48.898;8.308;2022-09-27T14:38:07;1.17;;;0.60;;
15633;SDS011;14654;48.898;8.308;2022-09-27T14:40:39;0.73;;;0.67;;
15633;SDS011;14654;48.898;8.308;2022-09-27T14:43:19;0.80;;;0.80;;
15633;SDS011;14654;48.898;8.308;2022-09-27T14:45:46;0.73;;;0.63;;
15633;SDS011;14654;48.898;8.308;2022-09-27T14:50:57;0.57;;;0.50;;
15633;SDS011;14654;48.898;8.308;2022-09-27T14:53:29;0.90;;;0.70;;
15633;SDS011;14654;48.898;8.308;2022-09-27T14:55:56;0.83;;;0.60;;
15633;SDS011;14654;48.898;8.308;2022-09-27T14:58:22;1.07;;;0.90;;
15633;SDS011;14654;48.898;8.308;2022-09-27T15:00:49;1.13;;;0.60;;
15633;SDS011;14654;48.898;8.308;2022-09-27T15:03:22;0.97;;;0.60;;
15633;SDS011;14654;48.898;8.308;2022-09-27T15:05:50;0.70;;;0.60;;
15633;SDS011;14654;48.898;8.308;2022-09-27T15:08:16;0.70;;;0.67;;
15633;SDS011;14654;48.898;8.308;2022-09-27T15:10:43;2.07;;;0.70;;
15633;SDS011;14654;48.898;8.308;2022-09-27T15:13:10;2.07;;;0.90;;
15633;SDS011;14654;48.898;8.308;2022-09-27T15:15:39;1.70;;;0.70;;
15633;SDS011;14654;48.898;8.308;2022-09-27T15:18:28;1.20;;;0.60;;
15633;SDS011;14654;48.898;8.308;2022-09-27T15:20:53;1.47;;;0.83;;
15633;SDS011;14654;48.898;8.308;2022-09-27T15:23:29;2.30;;;0.80;;
15633;SDS011;14654;48.898;8.308;2022-09-27T15:28:31;0.90;;;0.60;;
15633;SDS011;14654;48.898;8.308;2022-09-27T15:30:58;1.50;;;0.87;;
15633;SDS011;14654;48.898;8.308;2022-09-27T15:33:27;1.40;;;0.90;;
15633;SDS011;14654;48.898;8.308;2022-09-27T15:35:59;0.90;;;0.70;;
15633;SDS011;14654;48.898;8.308;2022-09-27T15:38:28;1.00;;;0.70;;
15633;SDS011;14654;48.898;8.308;2022-09-27T15:43:29;1.50;;;1.17;;
15633;SDS011;14654;48.898;8.308;2022-09-27T15:45:56;1.37;;;0.87;;
15633;SDS011;14654;48.898;8.308;2022-09-27T15:48:28;2.27;;;0.93;;
15633;SDS011;14654;48.898;8.308;2022-09-27T15:50:56;1.27;;;0.90;;
15633;SDS011;14654;48.898;8.308;2022-09-27T15:53:55;1.97;;;1.03;;
15633;SDS011;14654;48.898;8.308;2022-09-27T15:56:14;1.20;;;1.10;;
15633;SDS011;14654;48.898;8.308;2022-09-27T15:58:39;2.03;;;1.17;;
15633;SDS011;14654;48.898;8.308;2022-09-27T16:01:06;2.13;;;1.60;;
15633;SDS011;14654;48.898;8.308;2022-09-27T16:03:31;1.43;;;1.30;;
15633;SDS011;14654;48.898;8.308;2022-09-27T16:05:58;1.50;;;1.30;;
15633;SDS011;14654;48.898;8.308;2022-09-27T16:08:25;1.47;;;1.37;;
15633;SDS011;14654;48.898;8.308;2022-09-27T16:10:52;1.40;;;1.30;;
15633;SDS011;14654;48.898;8.308;2022-09-27T16:13:22;2.70;;;1.50;;
15633;SDS011;14654;48.898;8.308;2022-09-27T16:15:49;2.70;;;1.70;;
15633;SDS011;14654;48.898;8.308;2022-09-27T16:18:15;2.13;;;1.90;;
15633;SDS011;14654;48.898;8.308;2022-09-27T16:20:41;2.27;;;1.30;;
15633;SDS011;14654;48.898;8.308;2022-09-27T16:23:06;2.07;;;1.23;;
15633;SDS011;14654;48.898;8.308;2022-09-27T16:25:32;1.63;;;1.00;;
15633;SDS011;14654;48.898;8.308;2022-09-27T16:27:57;1.13;;;0.80;;
15633;SDS011;14654;48.898;8.308;2022-09-27T16:30:24;2.90;;;1.00;;
15633;SDS011;14654;48.898;8.308;2022-09-27T16:32:50;1.50;;;0.80;;
15633;SDS011;14654;48.898;8.308;2022-09-27T16:35:16;1.57;;;0.90;;
15633;SDS011;14654;48.898;8.308;2022-09-27T16:37:43;2.97;;;1.10;;
15633;SDS011;14654;48.898;8.308;2022-09-27T16:40:09;0.83;;;0.80;;
15633;SDS011;14654;48.898;8.308;2022-09-27T16:42:35;2.00;;;1.10;;
15633;SDS011;14654;48.898;8.308;2022-09-27T16:45:02;1.97;;;0.93;;
15633;SDS011;14654;48.898;8.308;2022-09-27T16:47:28;1.43;;;0.90;;
15633;SDS011;14654;48.898;8.308;2022-09-27T16:49:54;2.10;;;1.00;;
15633;SDS011;14654;48.898;8.308;2022-09-27T16:52:38;1.37;;;1.17;;
15633;SDS011;14654;48.898;8.308;2022-09-27T16:55:05;1.03;;;0.83;;
15633;SDS011;14654;48.898;8.308;2022-09-27T16:57:31;2.07;;;1.30;;
15633;SDS011;14654;48.898;8.308;2022-09-27T16:59:58;1.40;;;1.30;;
15633;SDS011;14654;48.898;8.308;2022-09-27T17:02:23;1.97;;;1.50;;
15633;SDS011;14654;48.898;8.308;2022-09-27T17:04:52;2.07;;;1.60;;
15633;SDS011;14654;48.898;8.308;2022-09-27T17:07:18;2.17;;;1.07;;
15633;SDS011;14654;48.898;8.308;2022-09-27T17:09:44;2.23;;;1.40;;
15633;SDS011;14654;48.898;8.308;2022-09-27T17:12:10;2.77;;;1.87;;
15633;SDS011;14654;48.898;8.308;2022-09-27T17:14:36;2.87;;;2.20;;
15633;SDS011;14654;48.898;8.308;2022-09-27T17:17:01;2.77;;;1.77;;
15633;SDS011;14654;48.898;8.308;2022-09-27T17:19:27;2.97;;;1.20;;
15633;SDS011;14654;48.898;8.308;2022-09-27T17:21:52;2.07;;;1.30;;
15633;SDS011;14654;48.898;8.308;2022-09-27T17:24:19;2.37;;;1.43;;
15633;SDS011;14654;48.898;8.308;2022-09-27T17:26:45;1.67;;;1.43;;
15633;SDS011;14654;48.898;8.308;2022-09-27T17:29:11;1.40;;;1.30;;
15633;SDS011;14654;48.898;8.308;2022-09-27T17:31:37;2.03;;;1.47;;
15633;SDS011;14654;48.898;8.308;2022-09-27T17:34:04;1.67;;;1.37;;
15633;SDS011;14654;48.898;8.308;2022-09-27T17:36:31;1.77;;;1.37;;
15633;SDS011;14654;48.898;8.308;2022-09-27T17:38:59;1.70;;;1.60;;
15633;SDS011;14654;48.898;8.308;2022-09-27T17:41:25;2.37;;;1.20;;
15633;SDS011;14654;48.898;8.308;2022-09-27T17:43:52;1.50;;;1.40;;
15633;SDS011;14654;48.898;8.308;2022-09-27T17:46:21;1.47;;;1.20;;
15633;SDS011;14654;48.898;8.308;2022-09-27T17:48:48;1.70;;;1.30;;
15633;SDS011;14654;48.898;8.308;2022-09-27T17:51:35;2.17;;;1.20;;
15633;SDS011;14654;48.898;8.308;2022-09-27T17:54:02;2.63;;;1.77;;
15633;SDS011;14654;48.898;8.308;2022-09-27T17:56:29;2.43;;;1.40;;
15633;SDS011;14654;48.898;8.308;2022-09-27T17:58:56;1.80;;;1.30;;
15633;SDS011;14654;48.898;8.308;2022-09-27T18:01:23;1.93;;;1.43;;
15633;SDS011;14654;48.898;8.308;2022-09-27T18:03:53;2.57;;;1.50;;
15633;SDS011;14654;48.898;8.308;2022-09-27T18:06:20;1.63;;;1.53;;